sensor_id;sensor_type;location;lat;lon;timestamp;temperature;humidity
9414;DHT22;4746;35.664;139.738;2023-05-28T00:00:59;22.40;99.90
9414;DHT22;4746;35.664;139.738;2023-05-28T00:03:27;22.50;99.90
9414;DHT22;4746;35.664;139.738;2023-05-28T00:05:58;22.40;99.90
9414;DHT22;4746;35.664;139.738;2023-05-28T00:08:25;22.60;99.90
9414;DHT22;4746;35.664;139.738;2023-05-28T00:10:56;22.70;99.90
9414;DHT22;4746;35.664;139.738;2023-05-28T00:13:35;22.90;99.90
9414;DHT22;4746;35.664;139.738;2023-05-28T00:16:02;22.90;99.90
9414;DHT22;4746;35.664;139.738;2023-05-28T00:18:30;23.00;99.90
9414;DHT22;4746;35.664;139.738;2023-05-28T00:20:57;22.90;99.90
9414;DHT22;4746;35.664;139.738;2023-05-28T00:23:25;23.00;99.90
9414;DHT22;4746;35.664;139.738;2023-05-28T00:25:52;23.00;99.90
9414;DHT22;4746;35.664;139.738;2023-05-28T00:28:20;23.00;99.90
9414;DHT22;4746;35.664;139.738;2023-05-28T00:30:48;23.10;99.90
9414;DHT22;4746;35.664;139.738;2023-05-28T00:33:15;23.30;99.90
9414;DHT22;4746;35.664;139.738;2023-05-28T00:35:43;23.40;99.90
9414;DHT22;4746;35.664;139.738;2023-05-28T00:38:10;23.50;99.90
9414;DHT22;4746;35.664;139.738;2023-05-28T00:40:43;23.50;99.90
9414;DHT22;4746;35.664;139.738;2023-05-28T00:43:14;23.60;99.90
9414;DHT22;4746;35.664;139.738;2023-05-28T00:45:42;23.70;99.90
9414;DHT22;4746;35.664;139.738;2023-05-28T00:48:10;23.70;99.90
9414;DHT22;4746;35.664;139.738;2023-05-28T00:50:42;23.70;99.90
9414;DHT22;4746;35.664;139.738;2023-05-28T00:53:11;23.80;99.90
9414;DHT22;4746;35.664;139.738;2023-05-28T00:55:41;24.00;99.90
9414;DHT22;4746;35.664;139.738;2023-05-28T00:58:13;24.20;99.90
9414;DHT22;4746;35.664;139.738;2023-05-28T01:00:46;24.20;99.90
9414;DHT22;4746;35.664;139.738;2023-05-28T01:03:14;24.20;99.90
9414;DHT22;4746;35.664;139.738;2023-05-28T01:05:46;24.30;99.90
9414;DHT22;4746;35.664;139.738;2023-05-28T01:08:15;24.20;99.90
9414;DHT22;4746;35.664;139.738;2023-05-28T01:10:43;24.30;99.90
9414;DHT22;4746;35.664;139.738;2023-05-28T01:13:12;24.20;99.90
9414;DHT22;4746;35.664;139.738;2023-05-28T01:15:39;24.20;99.90
9414;DHT22;4746;35.664;139.738;2023-05-28T01:18:07;24.20;99.90
9414;DHT22;4746;35.664;139.738;2023-05-28T01:20:35;24.20;99.90
9414;DHT22;4746;35.664;139.738;2023-05-28T01:23:06;24.30;99.90
9414;DHT22;4746;35.664;139.738;2023-05-28T01:25:38;24.40;99.90
9414;DHT22;4746;35.664;139.738;2023-05-28T01:28:12;24.50;99.90
9414;DHT22;4746;35.664;139.738;2023-05-28T01:30:40;24.60;99.90
9414;DHT22;4746;35.664;139.738;2023-05-28T01:33:10;24.60;99.90
9414;DHT22;4746;35.664;139.738;2023-05-28T01:35:42;24.70;99.90
9414;DHT22;4746;35.664;139.738;2023-05-28T01:38:11;24.70;99.90
9414;DHT22;4746;35.664;139.738;2023-05-28T01:40:44;24.80;99.90
9414;DHT22;4746;35.664;139.738;2023-05-28T01:43:13;24.80;99.90
9414;DHT22;4746;35.664;139.738;2023-05-28T01:45:42;25.00;99.90
9414;DHT22;4746;35.664;139.738;2023-05-28T01:48:10;25.00;99.90
9414;DHT22;4746;35.664;139.738;2023-05-28T01:50:38;24.90;99.90
9414;DHT22;4746;35.664;139.738;2023-05-28T01:53:06;24.90;99.90
9414;DHT22;4746;35.664;139.738;2023-05-28T01:55:33;24.90;99.90
9414;DHT22;4746;35.664;139.738;2023-05-28T01:58:01;25.00;99.90
9414;DHT22;4746;35.664;139.738;2023-05-28T02:00:29;25.20;99.90
9414;DHT22;4746;35.664;139.738;2023-05-28T02:02:57;25.20;99.90
9414;DHT22;4746;35.664;139.738;2023-05-28T02:05:24;25.10;99.90
9414;DHT22;4746;35.664;139.738;2023-05-28T02:07:52;25.00;99.90
9414;DHT22;4746;35.664;139.738;2023-05-28T02:10:23;25.00;99.90
9414;DHT22;4746;35.664;139.738;2023-05-28T02:12:50;24.90;99.90
9414;DHT22;4746;35.664;139.738;2023-05-28T02:15:20;24.80;99.90
9414;DHT22;4746;35.664;139.738;2023-05-28T02:17:48;24.90;99.90
9414;DHT22;4746;35.664;139.738;2023-05-28T02:20:18;24.90;99.90
9414;DHT22;4746;35.664;139.738;2023-05-28T02:22:46;25.10;99.90
9414;DHT22;4746;35.664;139.738;2023-05-28T02:25:13;25.00;99.90
9414;DHT22;4746;35.664;139.738;2023-05-28T02:27:44;25.10;99.90
9414;DHT22;4746;35.664;139.738;2023-05-28T02:30:12;25.10;99.90
9414;DHT22;4746;35.664;139.738;2023-05-28T02:32:40;25.20;99.90
9414;DHT22;4746;35.664;139.738;2023-05-28T02:35:08;25.30;99.90
9414;DHT22;4746;35.664;139.738;2023-05-28T02:37:36;25.30;99.90
9414;DHT22;4746;35.664;139.738;2023-05-28T02:40:03;25.40;99.90
9414;DHT22;4746;35.664;139.738;2023-05-28T02:42:32;25.20;99.90
9414;DHT22;4746;35.664;139.738;2023-05-28T02:44:59;25.20;99.90
9414;DHT22;4746;35.664;139.738;2023-05-28T02:47:27;25.20;99.90
9414;DHT22;4746;35.664;139.738;2023-05-28T02:49:54;25.30;99.90
9414;DHT22;4746;35.664;139.738;2023-05-28T02:52:22;25.40;99.90
9414;DHT22;4746;35.664;139.738;2023-05-28T02:54:52;25.40;99.90
9414;DHT22;4746;35.664;139.738;2023-05-28T02:57:19;25.40;99.90
9414;DHT22;4746;35.664;139.738;2023-05-28T02:59:48;25.60;99.90
9414;DHT22;4746;35.664;139.738;2023-05-28T03:02:16;25.80;99.90
9414;DHT22;4746;35.664;139.738;2023-05-28T03:04:43;25.80;99.90
9414;DHT22;4746;35.664;139.738;2023-05-28T03:07:11;25.80;99.90
9414;DHT22;4746;35.664;139.738;2023-05-28T03:09:38;25.80;99.90
9414;DHT22;4746;35.664;139.738;2023-05-28T03:12:06;25.90;99.90
9414;DHT22;4746;35.664;139.738;2023-05-28T03:14:34;25.60;99.90
9414;DHT22;4746;35.664;139.738;2023-05-28T03:17:01;25.50;99.90
9414;DHT22;4746;35.664;139.738;2023-05-28T03:19:29;25.40;99.90
9414;DHT22;4746;35.664;139.738;2023-05-28T03:21:58;25.40;99.90
9414;DHT22;4746;35.664;139.738;2023-05-28T03:24:25;25.50;99.90
9414;DHT22;4746;35.664;139.738;2023-05-28T03:26:53;25.40;99.90
9414;DHT22;4746;35.664;139.738;2023-05-28T03:29:20;25.50;99.90
9414;DHT22;4746;35.664;139.738;2023-05-28T03:31:48;25.60;99.90
9414;DHT22;4746;35.664;139.738;2023-05-28T03:34:17;25.50;99.90
9414;DHT22;4746;35.664;139.738;2023-05-28T03:36:44;25.60;99.90
9414;DHT22;4746;35.664;139.738;2023-05-28T03:39:12;25.70;99.90
9414;DHT22;4746;35.664;139.738;2023-05-28T03:41:40;25.70;99.90
9414;DHT22;4746;35.664;139.738;2023-05-28T03:44:07;25.70;99.90
9414;DHT22;4746;35.664;139.738;2023-05-28T03:46:35;25.60;99.90
9414;DHT22;4746;35.664;139.738;2023-05-28T03:49:03;25.50;99.90
9414;DHT22;4746;35.664;139.738;2023-05-28T03:51:30;25.50;99.90
9414;DHT22;4746;35.664;139.738;2023-05-28T03:53:59;25.40;99.90
9414;DHT22;4746;35.664;139.738;2023-05-28T03:56:27;25.40;99.90
9414;DHT22;4746;35.664;139.738;2023-05-28T03:58:56;25.40;99.90
9414;DHT22;4746;35.664;139.738;2023-05-28T04:01:23;25.50;99.90
9414;DHT22;4746;35.664;139.738;2023-05-28T04:03:51;25.70;99.90
9414;DHT22;4746;35.664;139.738;2023-05-28T04:06:18;25.80;99.90
9414;DHT22;4746;35.664;139.738;2023-05-28T04:08:46;25.90;99.90
9414;DHT22;4746;35.664;139.738;2023-05-28T04:11:14;25.90;99.90
9414;DHT22;4746;35.664;139.738;2023-05-28T04:13:42;26.00;99.90
9414;DHT22;4746;35.664;139.738;2023-05-28T04:16:09;26.00;99.90
9414;DHT22;4746;35.664;139.738;2023-05-28T04:18:37;26.10;99.90
9414;DHT22;4746;35.664;139.738;2023-05-28T04:21:04;25.90;99.90
9414;DHT22;4746;35.664;139.738;2023-05-28T04:23:33;26.00;99.90
9414;DHT22;4746;35.664;139.738;2023-05-28T04:26:01;26.10;99.90
9414;DHT22;4746;35.664;139.738;2023-05-28T04:28:28;26.20;99.90
9414;DHT22;4746;35.664;139.738;2023-05-28T04:30:58;26.30;99.90
9414;DHT22;4746;35.664;139.738;2023-05-28T04:33:28;26.40;99.90
9414;DHT22;4746;35.664;139.738;2023-05-28T04:36:00;26.60;99.90
9414;DHT22;4746;35.664;139.738;2023-05-28T04:38:28;26.80;99.90
9414;DHT22;4746;35.664;139.738;2023-05-28T04:40:58;27.00;99.90
9414;DHT22;4746;35.664;139.738;2023-05-28T04:43:30;27.20;99.90
9414;DHT22;4746;35.664;139.738;2023-05-28T04:45:59;27.50;99.90
9414;DHT22;4746;35.664;139.738;2023-05-28T04:48:29;27.60;99.90
9414;DHT22;4746;35.664;139.738;2023-05-28T04:51:01;27.50;99.90
9414;DHT22;4746;35.664;139.738;2023-05-28T04:53:30;27.30;99.90
9414;DHT22;4746;35.664;139.738;2023-05-28T04:55:58;27.40;99.90
9414;DHT22;4746;35.664;139.738;2023-05-28T04:58:25;27.30;99.90
9414;DHT22;4746;35.664;139.738;2023-05-28T05:00:53;27.40;99.90
9414;DHT22;4746;35.664;139.738;2023-05-28T05:03:22;27.50;99.90
9414;DHT22;4746;35.664;139.738;2023-05-28T05:05:49;27.60;99.90
9414;DHT22;4746;35.664;139.738;2023-05-28T05:08:17;27.60;99.90
9414;DHT22;4746;35.664;139.738;2023-05-28T05:10:44;27.80;99.90
9414;DHT22;4746;35.664;139.738;2023-05-28T05:13:12;27.80;99.90
9414;DHT22;4746;35.664;139.738;2023-05-28T05:15:39;27.90;99.90
9414;DHT22;4746;35.664;139.738;2023-05-28T05:18:07;27.90;99.90
9414;DHT22;4746;35.664;139.738;2023-05-28T05:20:34;28.00;99.90
9414;DHT22;4746;35.664;139.738;2023-05-28T05:23:02;28.10;99.90
9414;DHT22;4746;35.664;139.738;2023-05-28T05:25:29;28.20;99.90
9414;DHT22;4746;35.664;139.738;2023-05-28T05:27:57;28.50;99.90
9414;DHT22;4746;35.664;139.738;2023-05-28T05:30:24;28.50;99.90
9414;DHT22;4746;35.664;139.738;2023-05-28T05:32:52;28.60;99.90
9414;DHT22;4746;35.664;139.738;2023-05-28T05:35:19;28.40;99.90
9414;DHT22;4746;35.664;139.738;2023-05-28T05:37:47;28.60;99.90
9414;DHT22;4746;35.664;139.738;2023-05-28T05:40:14;28.70;99.90
9414;DHT22;4746;35.664;139.738;2023-05-28T05:42:42;28.80;99.90
9414;DHT22;4746;35.664;139.738;2023-05-28T05:45:10;28.60;99.90
9414;DHT22;4746;35.664;139.738;2023-05-28T05:47:37;28.40;99.90
9414;DHT22;4746;35.664;139.738;2023-05-28T05:50:05;28.20;99.90
9414;DHT22;4746;35.664;139.738;2023-05-28T05:52:33;28.20;99.90
9414;DHT22;4746;35.664;139.738;2023-05-28T05:55:01;28.20;99.90
9414;DHT22;4746;35.664;139.738;2023-05-28T05:57:28;28.30;99.90
9414;DHT22;4746;35.664;139.738;2023-05-28T05:59:56;28.30;99.90
9414;DHT22;4746;35.664;139.738;2023-05-28T06:02:23;28.20;99.90
9414;DHT22;4746;35.664;139.738;2023-05-28T06:04:51;28.00;99.90
9414;DHT22;4746;35.664;139.738;2023-05-28T06:07:19;28.00;99.90
9414;DHT22;4746;35.664;139.738;2023-05-28T06:09:46;27.60;99.90
9414;DHT22;4746;35.664;139.738;2023-05-28T06:12:16;27.40;99.90
9414;DHT22;4746;35.664;139.738;2023-05-28T06:14:43;27.30;99.90
9414;DHT22;4746;35.664;139.738;2023-05-28T06:17:13;27.10;99.90
9414;DHT22;4746;35.664;139.738;2023-05-28T06:19:41;26.80;99.90
9414;DHT22;4746;35.664;139.738;2023-05-28T06:22:08;26.60;99.90
9414;DHT22;4746;35.664;139.738;2023-05-28T06:24:37;26.50;99.90
9414;DHT22;4746;35.664;139.738;2023-05-28T06:27:05;26.20;99.90
9414;DHT22;4746;35.664;139.738;2023-05-28T06:29:32;25.90;99.90
9414;DHT22;4746;35.664;139.738;2023-05-28T06:32:00;25.60;99.90
9414;DHT22;4746;35.664;139.738;2023-05-28T06:34:27;25.30;99.90
9414;DHT22;4746;35.664;139.738;2023-05-28T06:36:55;25.20;99.90
9414;DHT22;4746;35.664;139.738;2023-05-28T06:39:24;25.10;99.90
9414;DHT22;4746;35.664;139.738;2023-05-28T06:41:54;25.10;99.90
9414;DHT22;4746;35.664;139.738;2023-05-28T06:44:22;24.90;99.90
9414;DHT22;4746;35.664;139.738;2023-05-28T06:46:49;24.90;99.90
9414;DHT22;4746;35.664;139.738;2023-05-28T06:49:17;24.80;99.90
9414;DHT22;4746;35.664;139.738;2023-05-28T06:51:44;24.70;99.90
9414;DHT22;4746;35.664;139.738;2023-05-28T06:54:13;24.60;99.90
9414;DHT22;4746;35.664;139.738;2023-05-28T06:56:41;24.60;99.90
9414;DHT22;4746;35.664;139.738;2023-05-28T06:59:11;24.60;99.90
9414;DHT22;4746;35.664;139.738;2023-05-28T07:01:38;24.70;99.90
9414;DHT22;4746;35.664;139.738;2023-05-28T07:04:06;24.80;99.90
9414;DHT22;4746;35.664;139.738;2023-05-28T07:06:33;24.90;99.90
9414;DHT22;4746;35.664;139.738;2023-05-28T07:09:01;24.90;99.90
9414;DHT22;4746;35.664;139.738;2023-05-28T07:11:29;24.90;99.90
9414;DHT22;4746;35.664;139.738;2023-05-28T07:13:56;25.00;99.90
9414;DHT22;4746;35.664;139.738;2023-05-28T07:16:24;25.20;99.90
9414;DHT22;4746;35.664;139.738;2023-05-28T07:18:52;25.30;99.90
9414;DHT22;4746;35.664;139.738;2023-05-28T07:21:21;25.30;99.90
9414;DHT22;4746;35.664;139.738;2023-05-28T07:23:49;25.40;99.90
9414;DHT22;4746;35.664;139.738;2023-05-28T07:26:16;25.50;99.90
9414;DHT22;4746;35.664;139.738;2023-05-28T07:28:44;25.50;99.90
9414;DHT22;4746;35.664;139.738;2023-05-28T07:31:11;25.40;99.90
9414;DHT22;4746;35.664;139.738;2023-05-28T07:33:39;25.10;99.90
9414;DHT22;4746;35.664;139.738;2023-05-28T07:36:07;25.00;99.90
9414;DHT22;4746;35.664;139.738;2023-05-28T07:38:36;24.90;99.90
9414;DHT22;4746;35.664;139.738;2023-05-28T07:41:04;24.90;99.90
9414;DHT22;4746;35.664;139.738;2023-05-28T07:43:31;24.90;99.90
9414;DHT22;4746;35.664;139.738;2023-05-28T07:45:59;24.80;99.90
9414;DHT22;4746;35.664;139.738;2023-05-28T07:48:26;24.60;99.90
9414;DHT22;4746;35.664;139.738;2023-05-28T07:50:54;24.30;99.90
9414;DHT22;4746;35.664;139.738;2023-05-28T07:53:21;24.20;99.90
9414;DHT22;4746;35.664;139.738;2023-05-28T07:55:49;24.20;99.90
9414;DHT22;4746;35.664;139.738;2023-05-28T07:58:17;24.00;99.90
9414;DHT22;4746;35.664;139.738;2023-05-28T08:00:44;24.00;99.90
9414;DHT22;4746;35.664;139.738;2023-05-28T08:03:13;23.90;99.90
9414;DHT22;4746;35.664;139.738;2023-05-28T08:05:42;23.90;99.90
9414;DHT22;4746;35.664;139.738;2023-05-28T08:08:10;23.80;99.90
9414;DHT22;4746;35.664;139.738;2023-05-28T08:10:37;23.80;99.90
9414;DHT22;4746;35.664;139.738;2023-05-28T08:13:05;23.80;99.90
9414;DHT22;4746;35.664;139.738;2023-05-28T08:15:32;23.70;99.90
9414;DHT22;4746;35.664;139.738;2023-05-28T08:18:00;23.60;99.90
9414;DHT22;4746;35.664;139.738;2023-05-28T08:20:29;23.40;99.90
9414;DHT22;4746;35.664;139.738;2023-05-28T08:22:56;23.40;99.90
9414;DHT22;4746;35.664;139.738;2023-05-28T08:25:24;23.30;99.90
9414;DHT22;4746;35.664;139.738;2023-05-28T08:27:52;23.30;99.90
9414;DHT22;4746;35.664;139.738;2023-05-28T08:30:19;23.20;99.90
9414;DHT22;4746;35.664;139.738;2023-05-28T08:32:47;23.30;99.90
9414;DHT22;4746;35.664;139.738;2023-05-28T08:35:14;23.20;99.90
9414;DHT22;4746;35.664;139.738;2023-05-28T08:37:42;23.10;99.90
9414;DHT22;4746;35.664;139.738;2023-05-28T08:40:10;23.10;99.90
9414;DHT22;4746;35.664;139.738;2023-05-28T08:42:39;23.10;99.90
9414;DHT22;4746;35.664;139.738;2023-05-28T08:45:07;23.10;99.90
9414;DHT22;4746;35.664;139.738;2023-05-28T08:47:37;23.10;99.90
9414;DHT22;4746;35.664;139.738;2023-05-28T08:50:06;23.10;99.90
9414;DHT22;4746;35.664;139.738;2023-05-28T08:52:35;23.10;99.90
9414;DHT22;4746;35.664;139.738;2023-05-28T08:55:04;23.10;99.90
9414;DHT22;4746;35.664;139.738;2023-05-28T08:57:32;23.00;99.90
9414;DHT22;4746;35.664;139.738;2023-05-28T09:00:00;23.00;99.90
9414;DHT22;4746;35.664;139.738;2023-05-28T09:02:35;23.00;99.90
9414;DHT22;4746;35.664;139.738;2023-05-28T09:05:02;23.00;99.90
9414;DHT22;4746;35.664;139.738;2023-05-28T09:07:30;22.90;99.90
9414;DHT22;4746;35.664;139.738;2023-05-28T09:09:58;22.90;99.90
9414;DHT22;4746;35.664;139.738;2023-05-28T09:12:26;22.90;99.90
9414;DHT22;4746;35.664;139.738;2023-05-28T09:14:54;22.90;99.90
9414;DHT22;4746;35.664;139.738;2023-05-28T09:20:10;22.90;99.90
9414;DHT22;4746;35.664;139.738;2023-05-28T09:22:39;22.90;99.90
9414;DHT22;4746;35.664;139.738;2023-05-28T09:25:07;22.80;99.90
9414;DHT22;4746;35.664;139.738;2023-05-28T09:27:37;22.80;99.90
9414;DHT22;4746;35.664;139.738;2023-05-28T09:30:08;22.80;99.90
9414;DHT22;4746;35.664;139.738;2023-05-28T09:32:36;22.80;99.90
9414;DHT22;4746;35.664;139.738;2023-05-28T09:35:07;22.90;99.90
9414;DHT22;4746;35.664;139.738;2023-05-28T09:37:35;22.90;99.90
9414;DHT22;4746;35.664;139.738;2023-05-28T09:40:04;22.90;99.90
9414;DHT22;4746;35.664;139.738;2023-05-28T09:42:41;22.90;99.90
9414;DHT22;4746;35.664;139.738;2023-05-28T09:45:10;22.90;99.90
9414;DHT22;4746;35.664;139.738;2023-05-28T09:47:45;22.90;99.90
9414;DHT22;4746;35.664;139.738;2023-05-28T09:50:13;22.90;99.90
9414;DHT22;4746;35.664;139.738;2023-05-28T09:52:43;22.90;99.90
9414;DHT22;4746;35.664;139.738;2023-05-28T09:55:16;22.90;99.90
9414;DHT22;4746;35.664;139.738;2023-05-28T09:58:01;22.90;99.90
9414;DHT22;4746;35.664;139.738;2023-05-28T10:00:40;22.90;99.90
9414;DHT22;4746;35.664;139.738;2023-05-28T10:05:48;22.90;99.90
9414;DHT22;4746;35.664;139.738;2023-05-28T10:08:23;22.80;99.90
9414;DHT22;4746;35.664;139.738;2023-05-28T10:10:53;22.80;99.90
9414;DHT22;4746;35.664;139.738;2023-05-28T10:13:22;22.90;99.90
9414;DHT22;4746;35.664;139.738;2023-05-28T10:15:51;22.90;99.90
9414;DHT22;4746;35.664;139.738;2023-05-28T10:18:20;22.80;99.90
9414;DHT22;4746;35.664;139.738;2023-05-28T10:20:49;22.80;99.90
9414;DHT22;4746;35.664;139.738;2023-05-28T10:23:19;22.80;99.90
9414;DHT22;4746;35.664;139.738;2023-05-28T10:25:49;22.80;99.90
9414;DHT22;4746;35.664;139.738;2023-05-28T10:28:20;22.70;99.90
9414;DHT22;4746;35.664;139.738;2023-05-28T10:31:03;22.70;99.90
9414;DHT22;4746;35.664;139.738;2023-05-28T10:33:43;22.70;99.90
9414;DHT22;4746;35.664;139.738;2023-05-28T10:36:13;22.70;99.90
9414;DHT22;4746;35.664;139.738;2023-05-28T10:38:56;22.70;99.90
9414;DHT22;4746;35.664;139.738;2023-05-28T10:41:34;22.70;99.90
9414;DHT22;4746;35.664;139.738;2023-05-28T10:44:08;22.70;99.90
9414;DHT22;4746;35.664;139.738;2023-05-28T10:46:38;22.70;99.90
9414;DHT22;4746;35.664;139.738;2023-05-28T10:49:14;22.70;99.90
9414;DHT22;4746;35.664;139.738;2023-05-28T10:57:15;22.60;99.90
9414;DHT22;4746;35.664;139.738;2023-05-28T10:59:50;22.60;99.90
9414;DHT22;4746;35.664;139.738;2023-05-28T11:02:25;22.60;99.90
9414;DHT22;4746;35.664;139.738;2023-05-28T11:05:00;22.50;99.90
9414;DHT22;4746;35.664;139.738;2023-05-28T11:10:15;22.50;99.90
9414;DHT22;4746;35.664;139.738;2023-05-28T11:12:44;22.50;99.90
9414;DHT22;4746;35.664;139.738;2023-05-28T11:15:14;22.50;99.90
9414;DHT22;4746;35.664;139.738;2023-05-28T11:17:45;22.50;99.90
9414;DHT22;4746;35.664;139.738;2023-05-28T11:20:23;22.50;99.90
9414;DHT22;4746;35.664;139.738;2023-05-28T11:22:53;22.50;99.90
9414;DHT22;4746;35.664;139.738;2023-05-28T11:25:22;22.50;99.90
9414;DHT22;4746;35.664;139.738;2023-05-28T11:27:53;22.50;99.90
9414;DHT22;4746;35.664;139.738;2023-05-28T11:30:25;22.40;99.90
9414;DHT22;4746;35.664;139.738;2023-05-28T11:32:54;22.40;99.90
9414;DHT22;4746;35.664;139.738;2023-05-28T11:35:23;22.40;99.90
9414;DHT22;4746;35.664;139.738;2023-05-28T11:37:52;22.40;99.90
9414;DHT22;4746;35.664;139.738;2023-05-28T11:40:33;22.30;99.90
9414;DHT22;4746;35.664;139.738;2023-05-28T11:43:01;22.40;99.90
9414;DHT22;4746;35.664;139.738;2023-05-28T11:45:36;22.40;99.90
9414;DHT22;4746;35.664;139.738;2023-05-28T11:48:09;22.40;99.90
9414;DHT22;4746;35.664;139.738;2023-05-28T11:50:40;22.40;99.90
9414;DHT22;4746;35.664;139.738;2023-05-28T11:53:08;22.40;99.90
9414;DHT22;4746;35.664;139.738;2023-05-28T11:55:35;22.40;99.90
9414;DHT22;4746;35.664;139.738;2023-05-28T11:58:04;22.30;99.90
9414;DHT22;4746;35.664;139.738;2023-05-28T12:00:32;22.30;99.90
9414;DHT22;4746;35.664;139.738;2023-05-28T12:03:00;22.30;99.90
9414;DHT22;4746;35.664;139.738;2023-05-28T12:05:35;22.20;99.90
9414;DHT22;4746;35.664;139.738;2023-05-28T12:08:06;22.20;99.90
9414;DHT22;4746;35.664;139.738;2023-05-28T12:10:33;22.20;99.90
9414;DHT22;4746;35.664;139.738;2023-05-28T12:13:01;22.20;99.90
9414;DHT22;4746;35.664;139.738;2023-05-28T12:15:32;22.20;99.90
9414;DHT22;4746;35.664;139.738;2023-05-28T12:18:02;22.20;99.90
9414;DHT22;4746;35.664;139.738;2023-05-28T12:20:42;22.20;99.90
9414;DHT22;4746;35.664;139.738;2023-05-28T12:23:11;22.20;99.90
9414;DHT22;4746;35.664;139.738;2023-05-28T12:25:59;22.20;99.90
9414;DHT22;4746;35.664;139.738;2023-05-28T12:28:27;22.20;99.90
9414;DHT22;4746;35.664;139.738;2023-05-28T12:30:54;22.20;99.90
9414;DHT22;4746;35.664;139.738;2023-05-28T12:33:22;22.20;99.90
9414;DHT22;4746;35.664;139.738;2023-05-28T12:35:50;22.20;99.90
9414;DHT22;4746;35.664;139.738;2023-05-28T12:38:18;22.10;99.90
9414;DHT22;4746;35.664;139.738;2023-05-28T12:40:47;22.10;99.90
9414;DHT22;4746;35.664;139.738;2023-05-28T12:43:15;22.20;99.90
9414;DHT22;4746;35.664;139.738;2023-05-28T12:45:42;22.10;99.90
9414;DHT22;4746;35.664;139.738;2023-05-28T12:48:10;22.10;99.90
9414;DHT22;4746;35.664;139.738;2023-05-28T12:50:37;22.20;99.90
9414;DHT22;4746;35.664;139.738;2023-05-28T12:53:05;22.20;99.90
9414;DHT22;4746;35.664;139.738;2023-05-28T12:55:33;22.20;99.90
9414;DHT22;4746;35.664;139.738;2023-05-28T12:58:01;22.20;99.90
9414;DHT22;4746;35.664;139.738;2023-05-28T13:00:28;22.20;99.90
9414;DHT22;4746;35.664;139.738;2023-05-28T13:02:56;22.20;99.90
9414;DHT22;4746;35.664;139.738;2023-05-28T13:05:24;22.20;99.90
9414;DHT22;4746;35.664;139.738;2023-05-28T13:07:52;22.20;99.90
9414;DHT22;4746;35.664;139.738;2023-05-28T13:10:19;22.20;99.90
9414;DHT22;4746;35.664;139.738;2023-05-28T13:12:47;22.20;99.90
9414;DHT22;4746;35.664;139.738;2023-05-28T13:15:14;22.20;99.90
9414;DHT22;4746;35.664;139.738;2023-05-28T13:17:43;22.10;99.90
9414;DHT22;4746;35.664;139.738;2023-05-28T13:20:12;22.20;99.90
9414;DHT22;4746;35.664;139.738;2023-05-28T13:22:41;22.10;99.90
9414;DHT22;4746;35.664;139.738;2023-05-28T13:25:09;22.10;99.90
9414;DHT22;4746;35.664;139.738;2023-05-28T13:27:37;22.10;99.90
9414;DHT22;4746;35.664;139.738;2023-05-28T13:30:04;22.10;99.90
9414;DHT22;4746;35.664;139.738;2023-05-28T13:32:32;22.00;99.90
9414;DHT22;4746;35.664;139.738;2023-05-28T13:35:00;22.00;99.90
9414;DHT22;4746;35.664;139.738;2023-05-28T13:37:28;21.90;99.90
9414;DHT22;4746;35.664;139.738;2023-05-28T13:39:58;21.90;99.90
9414;DHT22;4746;35.664;139.738;2023-05-28T13:42:26;21.90;99.90
9414;DHT22;4746;35.664;139.738;2023-05-28T13:44:54;21.90;99.90
9414;DHT22;4746;35.664;139.738;2023-05-28T13:47:22;21.90;99.90
9414;DHT22;4746;35.664;139.738;2023-05-28T13:49:49;22.00;99.90
9414;DHT22;4746;35.664;139.738;2023-05-28T13:52:17;22.00;99.90
9414;DHT22;4746;35.664;139.738;2023-05-28T13:54:45;22.00;99.90
9414;DHT22;4746;35.664;139.738;2023-05-28T13:57:12;22.00;99.90
9414;DHT22;4746;35.664;139.738;2023-05-28T13:59:40;21.90;99.90
9414;DHT22;4746;35.664;139.738;2023-05-28T14:02:07;21.90;99.90
9414;DHT22;4746;35.664;139.738;2023-05-28T14:04:35;21.90;99.90
9414;DHT22;4746;35.664;139.738;2023-05-28T14:07:03;21.90;99.90
9414;DHT22;4746;35.664;139.738;2023-05-28T14:09:31;21.90;99.90
9414;DHT22;4746;35.664;139.738;2023-05-28T14:11:58;21.90;99.90
9414;DHT22;4746;35.664;139.738;2023-05-28T14:14:27;21.90;99.90
9414;DHT22;4746;35.664;139.738;2023-05-28T14:16:54;21.90;99.90
9414;DHT22;4746;35.664;139.738;2023-05-28T14:19:22;22.00;99.90
9414;DHT22;4746;35.664;139.738;2023-05-28T14:21:49;21.90;99.90
9414;DHT22;4746;35.664;139.738;2023-05-28T14:24:17;21.90;99.90
9414;DHT22;4746;35.664;139.738;2023-05-28T14:26:44;21.90;99.90
9414;DHT22;4746;35.664;139.738;2023-05-28T14:29:12;21.90;99.90
9414;DHT22;4746;35.664;139.738;2023-05-28T14:31:39;21.90;99.90
9414;DHT22;4746;35.664;139.738;2023-05-28T14:34:07;22.00;99.90
9414;DHT22;4746;35.664;139.738;2023-05-28T14:36:34;22.00;99.90
9414;DHT22;4746;35.664;139.738;2023-05-28T14:39:03;22.00;99.90
9414;DHT22;4746;35.664;139.738;2023-05-28T14:41:31;22.10;99.90
9414;DHT22;4746;35.664;139.738;2023-05-28T14:43:58;22.10;99.90
9414;DHT22;4746;35.664;139.738;2023-05-28T14:46:26;22.10;99.90
9414;DHT22;4746;35.664;139.738;2023-05-28T14:48:53;22.10;99.90
9414;DHT22;4746;35.664;139.738;2023-05-28T14:51:21;22.00;99.90
9414;DHT22;4746;35.664;139.738;2023-05-28T14:53:49;22.10;99.90
9414;DHT22;4746;35.664;139.738;2023-05-28T14:56:16;22.00;99.90
9414;DHT22;4746;35.664;139.738;2023-05-28T14:58:44;22.10;99.90
9414;DHT22;4746;35.664;139.738;2023-05-28T15:01:11;22.10;99.90
9414;DHT22;4746;35.664;139.738;2023-05-28T15:03:39;22.10;99.90
9414;DHT22;4746;35.664;139.738;2023-05-28T15:06:06;22.10;99.90
9414;DHT22;4746;35.664;139.738;2023-05-28T15:08:34;22.10;99.90
9414;DHT22;4746;35.664;139.738;2023-05-28T15:11:01;22.10;99.90
9414;DHT22;4746;35.664;139.738;2023-05-28T15:13:29;22.10;99.90
9414;DHT22;4746;35.664;139.738;2023-05-28T15:15:57;22.10;99.90
9414;DHT22;4746;35.664;139.738;2023-05-28T15:18:24;22.10;99.90
9414;DHT22;4746;35.664;139.738;2023-05-28T15:20:52;22.10;99.90
9414;DHT22;4746;35.664;139.738;2023-05-28T15:23:20;22.10;99.90
9414;DHT22;4746;35.664;139.738;2023-05-28T15:25:50;22.10;99.90
9414;DHT22;4746;35.664;139.738;2023-05-28T15:28:18;22.10;99.90
9414;DHT22;4746;35.664;139.738;2023-05-28T15:30:46;22.10;99.90
9414;DHT22;4746;35.664;139.738;2023-05-28T15:33:13;22.00;99.90
9414;DHT22;4746;35.664;139.738;2023-05-28T15:35:42;22.00;99.90
9414;DHT22;4746;35.664;139.738;2023-05-28T15:38:10;22.00;99.90
9414;DHT22;4746;35.664;139.738;2023-05-28T15:40:38;22.00;99.90
9414;DHT22;4746;35.664;139.738;2023-05-28T15:43:06;22.00;99.90
9414;DHT22;4746;35.664;139.738;2023-05-28T15:45:33;22.00;99.90
9414;DHT22;4746;35.664;139.738;2023-05-28T15:48:01;22.00;99.90
9414;DHT22;4746;35.664;139.738;2023-05-28T15:50:28;22.00;99.90
9414;DHT22;4746;35.664;139.738;2023-05-28T15:52:56;21.90;99.90